Latest Weather Observations for Portland Airport

IDV60801

Issued at 9:31 am EST Saturday 1 August 2015 (issued every 30 minutes, with the page automatically refreshed every 10 minutes)

About weather observations | Map of weather stations | Latest weather observations for VIC | Other Formats
Station Details ID: 090171 Name: CASHMORE AIRPORT Lat: -38.31 Lon: 141.47 Height: 80.9 m
Data from the previous 72 hours. | See also: Recent months at Portland Airport
Date/Time
EST
Temp
°C
App
Temp
°C
Dew
Point
Rel
Hum
%
Delta-T
°C
Wind Press
QNH
hPa
Press
MSL
hPa
Rain
since 9 am
mm
Dir
 
Spd
km/h
Gust
km/h
Spd
kts
Gust
kts
01/09:30am 9.1 4.2 2.2 62 2.9 SW 17 22 9 12 1014.6 1014.7 0.0
01/09:00am 8.4 3.1 1.6 62 2.8 SW 19 30 10 16 1014.3 1014.4 5.4
01/08:30am 8.4 3.2 2.4 66 2.5 WSW 19 26 10 14 1013.5 1013.6 5.4
01/08:00am 7.6 2.2 1.5 65 2.5 WSW 19 24 10 13 1012.8 1012.9 5.4
01/07:30am 7.5 1.6 1.4 65 2.5 SW 22 28 12 15 1012.2 1012.4 5.4
01/07:00am 8.0 2.3 3.1 71 2.1 SW 22 28 12 15 1011.5 1011.7 5.4
01/06:30am 8.1 1.9 4.5 78 1.6 SW 26 39 14 21 1010.9 1011.0 5.4
01/06:00am 7.9 2.4 5.9 87 0.9 SW 24 32 13 17 1010.3 1010.4 5.4
01/05:50am 7.8 3.4 6.4 91 0.6 SW 19 28 10 15 1010.2 1010.3 5.4
01/05:36am 8.1 3.6 6.9 92 0.6 WSW 20 30 11 16 1010.1 1010.2 5.4
01/05:30am 7.9 3.5 6.7 92 0.6 WSW 19 24 10 13 1010.0 1010.1 5.0
01/05:00am 7.8 2.5 6.7 93 0.5 WSW 24 33 13 18 1009.7 1009.8 4.6
01/04:58am 7.8 2.5 6.7 93 0.5 WSW 24 32 13 17 1009.7 1009.8 4.6
01/04:37am 8.0 2.4 7.1 94 0.4 SW 26 41 14 22 1009.2 1009.3 4.2
01/04:35am 8.0 2.4 7.1 94 0.4 SW 26 41 14 22 1009.2 1009.3 4.2
01/04:30am 8.0 2.0 7.1 94 0.4 SW 28 43 15 23 1009.1 1009.2 4.0
01/04:28am 8.0 2.0 6.9 93 0.5 SW 28 43 15 23 1009.2 1009.3 3.6
01/04:26am 8.0 2.0 6.9 93 0.5 SW 28 43 15 23 1009.1 1009.2 3.6
01/04:00am 8.7 2.5 7.9 95 0.4 SW 30 50 16 27 1008.4 1008.5 3.4
01/03:54am 8.8 2.6 8.0 95 0.4 SW 30 50 16 27 1008.3 1008.4 3.4
01/03:30am 10.5 4.2 9.6 94 0.5 W 33 50 18 27 1007.6 1007.7 2.4
01/03:15am 10.8 3.3 9.6 92 0.6 WNW 39 57 21 31 1007.5 1007.6 1.8
01/03:14am 10.8 2.9 9.4 91 0.7 WNW 41 57 22 31 1007.4 1007.5 1.6
01/03:06am 11.0 2.5 9.1 88 0.9 WNW 44 72 24 39 1007.1 1007.2 1.4
01/03:00am 11.3 4.5 9.4 88 1.0 NW 35 65 19 35 1006.8 1006.9 1.4
01/02:56am 11.3 5.1 9.2 87 1.1 NW 32 50 17 27 1006.5 1006.6 1.2
01/02:30am 11.1 5.5 8.7 85 1.2 NNW 28 41 15 22 1006.3 1006.4 0.8
01/02:00am 10.5 5.2 8.3 86 1.1 NNW 26 39 14 21 1006.4 1006.5 0.6
01/01:56am 10.4 5.1 8.3 87 1.0 NNW 26 35 14 19 1006.5 1006.6 0.6
01/01:38am 9.9 5.0 8.3 90 0.8 NNW 24 37 13 20 1006.6 1006.7 0.6
01/01:30am 9.8 4.9 8.4 91 0.7 NNW 24 35 13 19 1006.7 1006.8 0.2
01/01:27am 9.8 4.9 8.4 91 0.7 NNW 24 39 13 21 1006.7 1006.8 0.2
01/01:00am 10.3 3.7 7.7 84 1.3 NNW 32 44 17 24 1007.0 1007.1 0.0
01/12:30am 10.8 4.3 6.6 75 2.0 NNW 30 43 16 23 1007.3 1007.4 0.0
01/12:00am 10.6 4.5 6.4 75 2.0 NNW 28 39 15 21 1007.9 1008.0 0.0
 
Date/Time
EST
Temp
°C
App
Temp
°C
Dew
Point
Rel
Hum
%
Delta-T
°C
Wind Press
QNH
hPa
Press
MSL
hPa
Rain
since 9 am
mm
Dir
 
Spd
km/h
Gust
km/h
Spd
kts
Gust
kts
31/11:30pm 10.3 3.7 6.1 75 2.0 NNW 30 46 16 25 1008.4 1008.5 0.0
31/11:05pm 10.0 3.7 5.8 75 1.9 NNW 28 48 15 26 1009.0 1009.1 0.0
31/11:00pm 9.9 3.6 5.7 75 1.9 NNW 28 43 15 23 1008.9 1009.0 0.0
31/10:30pm 9.8 3.4 5.4 74 2.0 NNW 28 46 15 25 1009.2 1009.3 0.0
31/10:00pm 9.5 3.5 5.3 75 1.9 NNW 26 41 14 22 1010.0 1010.1 0.0
31/09:30pm 9.2 3.5 5.0 75 1.9 NNW 24 35 13 19 1010.6 1010.7 0.0
31/09:00pm 9.0 4.0 4.8 75 1.9 NNW 20 30 11 16 1011.1 1011.3 0.0
31/08:30pm 9.0 4.0 4.8 75 1.9 NNW 20 28 11 15 1011.5 1011.7 0.0
31/08:00pm 8.9 3.9 4.5 74 2.0 N 20 28 11 15 1011.5 1011.7 0.0
31/07:30pm 8.8 4.3 4.4 74 1.9 N 17 24 9 13 1012.7 1012.8 0.0
31/07:00pm 8.8 4.3 4.2 73 2.0 NNW 17 26 9 14 1013.3 1013.4 0.0
31/06:30pm 8.9 4.4 4.1 72 2.1 NNW 17 26 9 14 1013.5 1013.6 0.0
31/06:00pm 8.9 4.4 4.1 72 2.1 NW 17 28 9 15 1013.7 1013.8 0.0
31/05:30pm 9.1 3.9 3.7 69 2.4 NW 20 32 11 17 1014.1 1014.2 0.0
31/05:00pm 9.3 4.1 3.7 68 2.4 NNW 20 28 11 15 1014.3 1014.4 0.0
31/04:30pm 9.5 3.6 3.7 67 2.5 NW 24 33 13 18 1014.5 1014.6 0.0
31/04:00pm 10.0 4.4 3.5 64 2.8 NW 22 37 12 20 1014.4 1014.5 0.0
31/03:30pm 10.3 4.4 4.0 65 2.8 NW 24 37 13 20 1014.7 1014.8 0.0
31/03:00pm 10.5 4.6 3.8 63 3.0 NNW 24 35 13 19 1014.7 1014.8 0.0
31/02:30pm 10.2 5.2 3.7 64 2.9 NW 19 28 10 15 1015.2 1015.3 0.0
31/02:00pm 10.0 4.0 3.1 62 3.0 NNW 24 35 13 19 1016.0 1016.1 0.0
31/01:30pm 10.0 3.2 3.3 63 2.9 NW 28 35 15 19 1016.4 1016.5 0.0
31/01:00pm 9.9 3.5 3.0 62 3.0 NW 26 33 14 18 1017.1 1017.2 0.0
31/12:30pm 10.0 3.9 2.8 61 3.1 NW 24 35 13 19 1017.9 1018.0 0.0
31/12:00pm 10.4 4.3 2.7 59 3.3 NW 24 33 13 18 1018.6 1018.7 0.0
31/11:30am 10.4 4.3 2.5 58 3.4 NNW 24 35 13 19 1019.0 1019.1 0.0
31/11:00am 9.9 4.8 3.9 66 2.6 NNW 20 30 11 16 1019.3 1019.4 0.0
31/10:30am 9.6 4.6 3.8 67 2.5 NNW 19 28 10 15 1019.5 1019.6 0.0
31/10:00am 8.7 3.7 3.7 71 2.2 NNW 19 26 10 14 1019.7 1019.8 0.0
31/09:30am 7.8 3.2 3.8 76 1.7 NNW 17 24 9 13 1019.7 1019.8 0.0
31/09:00am 7.1 2.4 3.3 77 1.6 NNW 17 20 9 11 1019.8 1019.9 5.4
31/08:30am 6.7 2.7 3.1 78 1.5 NNW 13 19 7 10 1019.8 1019.9 5.4
31/08:00am 6.5 2.2 3.1 79 1.4 NNW 15 19 8 10 1019.7 1019.8 5.4
31/07:30am 6.5 2.6 3.3 80 1.3 NNW 13 15 7 8 1019.6 1019.7 5.4
31/07:00am 6.3 2.4 3.5 82 1.2 NNW 13 17 7 9 1019.3 1019.4 5.4
31/06:30am 6.9 3.2 2.6 74 1.8 NW 11 19 6 10 1019.4 1019.5 5.4
31/06:00am 8.3 3.4 1.7 63 2.7 W 17 26 9 14 1019.1 1019.2 5.4
31/05:30am 8.2 3.7 2.4 67 2.4 W 15 22 8 12 1019.2 1019.3 5.4
31/05:00am 7.9 3.5 2.6 69 2.2 W 15 19 8 10 1019.5 1019.6 5.4
31/04:30am 7.8 3.6 3.7 75 1.8 SW 15 19 8 10 1019.4 1019.5 5.4
31/04:00am 8.5 3.3 3.6 71 2.1 W 20 28 11 15 1019.5 1019.6 5.4
31/03:30am 8.0 4.0 2.7 69 2.2 W 13 17 7 9 1019.5 1019.6 5.4
31/03:00am 7.5 4.0 3.4 75 1.7 WSW 11 13 6 7 1019.6 1019.7 5.4
31/02:30am 7.7 4.4 4.3 79 1.5 W 11 17 6 9 1019.7 1019.8 5.4
31/02:00am 5.1 1.6 1.2 76 1.5 WSW 9 13 5 7 1019.6 1019.7 5.4
31/01:30am 5.8 2.0 1.9 76 1.6 WSW 11 13 6 7 1019.6 1019.7 5.4
31/01:00am 7.1 2.9 1.8 69 2.2 WSW 13 17 7 9 1019.7 1019.8 5.4
31/12:30am 7.4 3.9 3.5 76 1.7 WSW 11 13 6 7 1019.7 1019.8 5.4
31/12:00am 7.4 3.9 3.3 75 1.7 WSW 11 15 6 8 1019.5 1019.6 5.4
 
Date/Time
EST
Temp
°C
App
Temp
°C
Dew
Point
Rel
Hum
%
Delta-T
°C
Wind Press
QNH
hPa
Press
MSL
hPa
Rain
since 9 am
mm
Dir
 
Spd
km/h
Gust
km/h
Spd
kts
Gust
kts
30/11:30pm 7.8 3.6 4.0 77 1.6 WSW 15 24 8 13 1019.6 1019.7 5.4
30/11:00pm 8.1 4.9 3.0 70 2.2 SW 9 17 5 9 1019.2 1019.3 5.2
30/10:30pm 7.6 3.6 2.7 71 2.1 WSW 13 19 7 10 1018.9 1019.0 5.2
30/10:00pm 7.8 2.9 2.1 67 2.4 SW 17 24 9 13 1018.7 1018.8 5.2
30/09:30pm 8.1 3.5 3.6 73 1.9 SW 17 26 9 14 1018.3 1018.4 5.2
30/09:00pm 8.0 3.0 4.4 78 1.6 SW 20 30 11 16 1017.8 1017.9 5.2
30/08:30pm 8.5 2.8 5.1 79 1.5 SW 24 39 13 21 1017.8 1017.9 5.2
30/08:00pm 8.9 3.3 3.5 69 2.3 SW 22 35 12 19 1017.0 1017.1 5.0
30/07:30pm 9.0 2.3 3.6 69 2.3 SW 28 39 15 21 1016.2 1016.3 5.0
30/07:00pm 9.3 3.3 5.3 76 1.8 SW 26 43 14 23 1015.6 1015.7 5.0
30/06:30pm 9.1 2.9 6.2 82 1.3 WSW 28 41 15 22 1014.8 1014.9 5.0
30/06:00pm 8.9 3.3 7.2 89 0.8 WSW 26 37 14 20 1014.1 1014.2 5.0
30/05:30pm 8.6 1.9 7.4 92 0.6 WSW 32 46 17 25 1013.4 1013.5 5.0
30/05:29pm 8.6 1.9 7.4 92 0.6 WSW 32 46 17 25 1013.4 1013.5 5.0
30/05:00pm 9.0 0.7 7.9 93 0.5 SW 41 59 22 32 1012.6 1012.7 4.0
30/04:58pm 9.0 1.1 7.9 93 0.5 WSW 39 59 21 32 1012.6 1012.7 4.0
30/04:45pm 9.7 2.0 8.8 94 0.4 WSW 39 61 21 33 1011.9 1012.1 3.6
30/04:39pm 10.1 1.6 9.2 94 0.4 W 44 72 24 39 1011.6 1011.8 3.6
30/04:30pm 10.5 2.0 9.3 92 0.6 WNW 44 74 24 40 1010.9 1011.0 2.0
30/04:28pm 10.6 2.7 9.2 91 0.7 WNW 41 74 22 40 1010.7 1010.8 1.8
30/04:26pm 11.0 4.3 9.6 91 0.7 NW 35 69 19 37 1010.6 1010.7 1.6
30/04:00pm 10.8 4.4 8.4 85 1.2 NW 32 50 17 27 1009.7 1009.8 0.2
30/03:53pm 10.7 4.3 8.5 86 1.1 NW 32 50 17 27 1009.8 1009.9 0.2
30/03:50pm 10.6 4.5 8.4 86 1.1 NW 30 41 16 22 1009.9 1010.0 0.2
30/03:30pm 10.5 3.8 8.1 85 1.2 NW 33 57 18 31 1010.2 1010.3 0.2
30/03:29pm 10.5 3.7 7.9 84 1.3 NW 33 57 18 31 1010.2 1010.3 0.2
30/03:21pm 11.1 4.2 7.4 78 1.8 NW 33 57 18 31 1009.9 1010.0 0.2
30/03:00pm 11.6 4.6 6.7 72 2.3 NW 33 46 18 25 1009.7 1009.8 0.2
30/02:30pm 11.0 3.4 5.7 70 2.5 NNW 35 56 19 30 1010.0 1010.1 0.2
30/02:02pm 10.5 2.9 5.7 72 2.2 NNW 35 56 19 30 1010.2 1010.3 0.2
30/02:00pm 10.4 2.8 5.8 73 2.1 NNW 35 52 19 28 1010.3 1010.4 0.2
30/01:46pm 10.0 2.7 5.6 74 2.0 NNW 33 52 18 28 1010.0 1010.1 0.2
30/01:30pm 9.7 2.5 5.9 77 1.8 NNW 33 50 18 27 1010.6 1010.7 0.2
30/01:05pm 9.8 2.7 6.3 79 1.6 NNW 33 52 18 28 1011.1 1011.3 0.2
30/01:00pm 9.6 2.1 6.5 81 1.4 NNW 35 50 19 27 1011.1 1011.3 0.2
30/12:30pm 10.6 2.3 4.3 65 2.8 NNW 37 57 20 31 1011.9 1012.1 0.0
30/12:03pm 11.3 2.5 3.6 59 3.4 NNW 39 57 21 31 1012.1 1012.3 0.0
30/12:00pm 11.2 2.4 3.5 59 3.4 NNW 39 56 21 30 1012.4 1012.5 0.0
30/11:30am 11.1 3.7 3.9 61 3.2 NNW 32 54 17 29 1012.7 1012.8 0.0
30/11:00am 10.8 3.5 4.3 64 2.9 NNW 32 54 17 29 1012.8 1012.9 0.0
30/10:55am 10.5 3.9 4.0 64 2.9 NNW 28 46 15 25 1013.1 1013.2 0.0
30/10:30am 9.9 2.8 3.6 65 2.8 N 30 46 16 25 1013.4 1013.5 0.0
30/10:00am 9.3 1.9 3.9 69 2.4 N 32 48 17 26 1013.7 1013.8 0.0
30/09:30am 8.7 1.2 3.7 71 2.2 N 32 48 17 26 1014.3 1014.4 0.0
30/09:11am 8.9 1.4 3.3 68 2.4 NNW 32 54 17 29 1015.0 1015.1 0.0
30/09:00am 8.7 2.0 3.7 71 2.2 NNW 28 43 15 23 1015.1 1015.2 0.2
30/08:30am 8.1 2.2 4.1 76 1.7 NNW 24 32 13 17 1015.5 1015.6 0.2
30/08:00am 8.5 1.8 3.4 70 2.2 NNW 28 39 15 21 1015.8 1015.9 0.0
30/07:30am 8.1 1.4 3.8 74 1.9 NNW 28 41 15 22 1015.8 1015.9 0.0
30/07:00am 8.7 1.9 3.1 68 2.4 NNW 28 41 15 22 1015.6 1015.7 0.0
30/06:47am 8.7 1.9 2.9 67 2.5 NNW 28 46 15 25 1015.7 1015.8 0.0
30/06:30am 8.7 1.9 2.9 67 2.5 NNW 28 44 15 24 1015.8 1015.9 0.0
30/06:00am 8.7 1.9 2.9 67 2.5 NNW 28 44 15 24 1016.1 1016.2 0.0
30/05:30am 8.5 1.3 3.1 69 2.3 NNW 30 44 16 24 1016.7 1016.8 0.0
30/05:09am 8.6 1.1 3.2 69 2.3 N 32 50 17 27 1016.8 1016.9 0.0
30/05:00am 8.4 0.9 3.3 70 2.2 NNW 32 48 17 26 1017.2 1017.3 0.0
30/04:30am 8.4 1.3 3.3 70 2.2 NNW 30 43 16 23 1017.6 1017.7 0.0
30/04:00am 8.2 0.7 3.3 71 2.1 NNW 32 46 17 25 1018.0 1018.1 0.0
30/03:30am 8.1 1.7 3.4 72 2.0 N 26 41 14 22 1018.5 1018.6 0.0
30/03:00am 7.8 1.4 3.3 73 1.9 N 26 43 14 23 1019.2 1019.3 0.0
30/02:30am 7.9 1.9 3.4 73 1.9 N 24 35 13 19 1019.7 1019.8 0.0
30/02:00am 7.7 1.7 3.4 74 1.8 NNW 24 33 13 18 1020.1 1020.2 0.0
30/01:30am 8.0 2.4 3.7 74 1.9 N 22 35 12 19 1020.5 1020.6 0.0
30/01:00am 7.6 2.6 3.6 76 1.7 N 19 28 10 15 1021.1 1021.2 0.0
30/12:30am 7.8 2.6 3.8 76 1.7 N 20 28 11 15 1021.6 1021.8 0.0
30/12:00am 8.0 2.8 3.8 75 1.8 N 20 28 11 15 1022.1 1022.3 0.0
 
Date/Time
EST
Temp
°C
App
Temp
°C
Dew
Point
Rel
Hum
%
Delta-T
°C
Wind Press
QNH
hPa
Press
MSL
hPa
Rain
since 9 am
mm
Dir
 
Spd
km/h
Gust
km/h
Spd
kts
Gust
kts
29/11:30pm 8.4 3.3 4.0 74 1.9 N 20 30 11 16 1022.8 1023.0 0.0
29/11:00pm 8.5 3.6 4.1 74 1.9 N 19 26 10 14 1023.1 1023.3 0.0
29/10:30pm 8.2 3.3 4.0 75 1.8 N 19 26 10 14 1023.1 1023.3 0.0
29/10:00pm 8.2 3.3 4.0 75 1.8 N 19 26 10 14 1023.6 1023.8 0.0
29/09:30pm 8.6 3.7 4.2 74 1.9 N 19 24 10 13 1023.9 1024.1 0.0
29/09:00pm 8.7 4.2 4.3 74 1.9 N 17 24 9 13 1024.0 1024.2 0.0
29/08:30pm 8.7 4.2 4.3 74 1.9 N 17 22 9 12 1024.1 1024.3 0.0
29/08:00pm 8.8 4.3 4.4 74 1.9 N 17 26 9 14 1024.2 1024.4 0.0
29/07:30pm 9.0 4.2 4.6 74 2.0 N 19 26 10 14 1024.4 1024.6 0.0
29/07:00pm 9.1 4.7 4.9 75 1.9 N 17 24 9 13 1024.6 1024.8 0.0
29/06:30pm 9.4 4.7 5.0 74 2.0 N 19 24 10 13 1024.4 1024.6 0.0
29/06:00pm 9.6 4.9 5.0 73 2.1 N 19 26 10 14 1024.4 1024.6 0.0
29/05:30pm 10.0 5.1 5.0 71 2.3 NNW 20 30 11 16 1024.6 1024.8 0.0
29/05:00pm 10.3 5.6 5.1 70 2.4 NNW 19 28 10 15 1024.9 1025.1 0.0
29/04:30pm 10.6 5.9 5.2 69 2.5 NNW 19 28 10 15 1025.2 1025.3 0.0
29/04:00pm 11.2 5.5 4.7 64 2.9 NNW 24 37 13 20 1025.5 1025.6 0.0
29/03:30pm 11.4 5.8 5.3 66 2.8 NNW 24 37 13 20 1025.6 1025.7 0.0
29/03:00pm 11.8 6.7 5.9 67 2.8 NNW 22 32 12 17 1025.8 1025.9 0.0
29/02:30pm 11.2 6.4 5.7 69 2.6 NNW 20 30 11 16 1026.2 1026.3 0.0
29/02:00pm 11.1 6.3 5.8 70 2.5 NNW 20 35 11 19 1026.6 1026.7 0.0
29/01:30pm 11.1 6.0 5.8 70 2.5 NNW 22 35 12 19 1027.0 1027.1 0.0
29/01:00pm 11.1 5.5 5.6 69 2.5 NNW 24 37 13 20 1028.1 1028.2 0.0
29/12:30pm 10.8 6.1 6.0 72 2.2 NNW 20 30 11 16 1028.8 1028.9 0.0
29/12:00pm 10.6 6.7 6.9 78 1.7 NNW 17 22 9 12 1029.6 1029.7 0.0
29/11:30am 10.1 6.6 7.0 81 1.5 NNW 15 20 8 11 1030.0 1030.1 0.0
29/11:00am 9.7 5.2 7.1 84 1.2 NNW 20 28 11 15 1030.4 1030.5 0.0
29/10:30am 9.6 6.4 8.4 92 0.6 NNW 15 20 8 11 1030.7 1030.8 0.0
29/10:00am 9.0 5.7 8.2 95 0.4 N 15 20 8 11 1031.0 1031.1 0.0

Other Formats:

Comma delimited format used in spreadsheet applications
http://www.bom.gov.au/fwo/IDV60801/IDV60801.94828.axf

JavaScript Object Notation format (JSON) in row-major order
http://www.bom.gov.au/fwo/IDV60801/IDV60801.94828.json